createdAt,value
2018-09-01T00:00:25.482Z,15.45
2018-09-01T00:02:54.422Z,15.46
2018-09-01T00:05:23.665Z,15.46
2018-09-01T00:07:52.571Z,15.46
2018-09-01T00:10:21.473Z,15.46
2018-09-01T00:12:50.569Z,15.44
2018-09-01T00:15:19.442Z,15.46
2018-09-01T00:17:48.432Z,15.48
2018-09-01T00:20:17.995Z,15.48
2018-09-01T00:22:47.232Z,15.46
2018-09-01T00:25:16.505Z,15.49
2018-09-01T00:27:45.618Z,15.48
2018-09-01T00:30:14.497Z,15.48
2018-09-01T00:32:43.377Z,15.48
2018-09-01T00:35:12.585Z,15.48
2018-09-01T00:37:46.676Z,15.47
2018-09-01T00:40:15.911Z,15.50
2018-09-01T00:42:44.975Z,15.51
2018-09-01T00:45:13.953Z,15.47
2018-09-01T00:47:43.057Z,15.47
2018-09-01T00:50:11.986Z,15.46
2018-09-01T00:52:41.026Z,15.51
2018-09-01T00:55:14.676Z,15.53
2018-09-01T00:57:43.628Z,14.93
2018-09-01T01:00:12.763Z,15.51
2018-09-01T01:02:41.656Z,15.49
2018-09-01T01:05:10.727Z,15.53
2018-09-01T01:07:40.196Z,15.52
2018-09-01T01:10:09.093Z,15.57
2018-09-01T01:12:38.024Z,15.52
2018-09-01T01:15:07.331Z,15.52
2018-09-01T01:17:36.417Z,15.49
2018-09-01T01:20:05.436Z,15.49
2018-09-01T01:22:34.681Z,15.48
2018-09-01T01:25:04.202Z,15.50
2018-09-01T01:27:32.991Z,15.50
2018-09-01T01:30:02.187Z,15.50
2018-09-01T01:32:31.182Z,15.49
2018-09-01T01:35:03.152Z,15.50
2018-09-01T01:37:33.600Z,15.52
2018-09-01T01:40:03.284Z,15.50
2018-09-01T01:42:32.269Z,15.51
2018-09-01T01:45:01.483Z,15.49
2018-09-01T01:47:30.640Z,15.51
2018-09-01T01:49:59.847Z,15.47
2018-09-01T01:52:29.295Z,15.48
2018-09-01T01:54:58.286Z,15.50
2018-09-01T01:57:27.204Z,15.50
2018-09-01T01:59:56.533Z,15.52
2018-09-01T02:02:25.439Z,15.47
2018-09-01T02:04:54.461Z,15.48
2018-09-01T02:07:23.917Z,15.51
2018-09-01T02:09:53.150Z,15.46
2018-09-01T02:12:22.108Z,15.48
2018-09-01T02:14:51.278Z,15.51
2018-09-01T02:17:20.354Z,15.49
2018-09-01T02:19:49.430Z,15.48
2018-09-01T02:22:18.734Z,15.49
2018-09-01T02:24:47.688Z,15.46
2018-09-01T02:27:16.963Z,15.45
2018-09-01T02:29:45.988Z,15.46
2018-09-01T02:32:14.946Z,15.46
2018-09-01T02:34:43.914Z,15.43
2018-09-01T02:37:13.105Z,15.41
2018-09-01T02:39:42.039Z,15.40
2018-09-01T02:42:11.324Z,15.38
2018-09-01T02:44:40.521Z,15.35
2018-09-01T02:47:09.453Z,15.33
2018-09-01T02:49:38.384Z,15.31
2018-09-01T02:52:07.687Z,15.30
2018-09-01T02:54:37.120Z,15.34
2018-09-01T02:57:06.201Z,15.27
2018-09-01T02:59:35.430Z,15.28
2018-09-01T03:02:04.615Z,15.30
2018-09-01T03:04:33.639Z,15.30
2018-09-01T03:07:02.762Z,15.28
2018-09-01T03:09:31.691Z,15.29
2018-09-01T03:12:00.886Z,15.29
2018-09-01T03:14:30.334Z,15.29
2018-09-01T03:16:59.280Z,15.29
2018-09-01T03:19:28.131Z,15.29
2018-09-01T03:21:57.190Z,15.31
2018-09-01T03:24:26.160Z,15.30
2018-09-01T03:26:55.086Z,15.33
2018-09-01T03:29:24.173Z,15.33
2018-09-01T03:31:53.047Z,15.33
2018-09-01T03:34:21.965Z,15.37
2018-09-01T03:36:50.942Z,15.39
2018-09-01T03:39:19.986Z,15.38
2018-09-01T03:41:49.056Z,15.39
2018-09-01T03:44:18.478Z,15.39
2018-09-01T03:46:47.428Z,15.41
2018-09-01T03:49:16.571Z,15.38
2018-09-01T03:51:45.816Z,15.40
2018-09-01T03:54:14.660Z,15.42
2018-09-01T03:56:43.914Z,15.43
2018-09-01T03:59:13.206Z,15.44
2018-09-01T04:01:42.253Z,15.42
2018-09-01T04:04:11.125Z,15.35
2018-09-01T04:06:40.454Z,15.39
2018-09-01T04:09:09.455Z,15.38
2018-09-01T04:11:38.485Z,15.42
2018-09-01T04:14:08.026Z,15.43
2018-09-01T04:16:36.900Z,15.45
2018-09-01T04:19:10.484Z,15.45
2018-09-01T04:21:39.939Z,14.35
2018-09-01T04:24:08.838Z,15.40
2018-09-01T04:26:37.755Z,15.37
2018-09-01T04:29:06.900Z,15.38
2018-09-01T04:31:35.832Z,15.38
2018-09-01T04:34:04.989Z,15.32
2018-09-01T04:36:34.478Z,15.32
2018-09-01T04:39:03.493Z,15.36
2018-09-01T04:41:32.311Z,15.36
2018-09-01T04:44:01.816Z,15.35
2018-09-01T04:46:30.756Z,15.33
2018-09-01T04:48:59.866Z,15.31
2018-09-01T04:51:28.957Z,15.31
2018-09-01T04:53:57.908Z,15.35
2018-09-01T04:56:26.838Z,15.33
2018-09-01T04:58:55.965Z,15.35
2018-09-01T05:01:25.355Z,15.34
2018-09-01T05:03:54.122Z,15.34
2018-09-01T05:06:23.303Z,15.35
2018-09-01T05:08:52.294Z,15.35
2018-09-01T05:11:21.205Z,15.37
2018-09-01T05:13:50.847Z,15.37
2018-09-01T05:16:19.859Z,15.38
2018-09-01T05:18:49.451Z,15.37
2018-09-01T05:21:18.781Z,15.40
2018-09-01T05:23:47.711Z,15.40
2018-09-01T05:26:17.521Z,15.41
2018-09-01T05:28:47.185Z,14.78
2018-09-01T05:31:16.257Z,15.42
2018-09-01T05:33:45.401Z,15.42
2018-09-01T05:36:15.169Z,15.41
2018-09-01T05:38:44.015Z,15.38
2018-09-01T05:41:13.338Z,15.38
2018-09-01T05:43:42.406Z,15.41
2018-09-01T05:46:11.411Z,15.40
2018-09-01T05:48:40.699Z,15.36
2018-09-01T05:51:09.956Z,15.34
2018-09-01T05:53:38.852Z,15.34
2018-09-01T05:56:07.817Z,15.40
2018-09-01T05:58:36.919Z,15.41
2018-09-01T06:01:06.654Z,15.42
2018-09-01T06:03:35.700Z,15.44
2018-09-01T06:06:05.646Z,15.44
2018-09-01T06:08:35.178Z,15.42
2018-09-01T06:11:04.383Z,15.43
2018-09-01T06:13:33.514Z,15.40
2018-09-01T06:16:02.396Z,15.40
2018-09-01T06:18:31.309Z,15.42
2018-09-01T06:21:00.408Z,15.40
2018-09-01T06:23:29.518Z,15.43
2018-09-01T06:25:58.770Z,15.40
2018-09-01T06:28:33.150Z,15.42
2018-09-01T06:31:02.576Z,15.42
2018-09-01T06:33:31.760Z,15.38
2018-09-01T06:36:00.980Z,15.44
2018-09-01T06:38:30.781Z,15.43
2018-09-01T06:41:00.219Z,15.43
2018-09-01T06:43:29.350Z,15.24
2018-09-01T06:45:58.642Z,15.43
2018-09-01T06:48:28.152Z,15.44
2018-09-01T06:50:57.586Z,15.44
2018-09-01T06:53:27.010Z,15.45
2018-09-01T06:55:56.599Z,15.46
2018-09-01T06:58:25.881Z,15.60
2018-09-01T07:00:55.273Z,15.61
2018-09-01T07:03:25.047Z,15.67
2018-09-01T07:05:54.067Z,15.71
2018-09-01T07:08:23.270Z,15.73
2018-09-01T07:10:52.430Z,15.85
2018-09-01T07:13:21.391Z,15.97
2018-09-01T07:15:50.331Z,15.98
2018-09-01T07:18:19.587Z,16.07
2018-09-01T07:20:48.622Z,16.10
2018-09-01T07:23:17.669Z,16.12
2018-09-01T07:25:46.849Z,16.12
2018-09-01T07:28:15.851Z,16.21
2018-09-01T07:30:45.057Z,16.27
2018-09-01T07:33:14.278Z,16.35
2018-09-01T07:35:43.555Z,16.47
2018-09-01T07:38:12.518Z,16.52
2018-09-01T07:40:41.580Z,16.47
2018-09-01T07:43:10.839Z,16.53
2018-09-01T07:45:40.049Z,16.52
2018-09-01T07:48:09.090Z,16.57
2018-09-01T07:50:38.058Z,16.58
2018-09-01T07:53:07.197Z,16.75
2018-09-01T07:55:36.395Z,16.75
2018-09-01T07:58:06.099Z,16.77
2018-09-01T08:00:35.199Z,16.88
2018-09-01T08:03:04.493Z,16.20
2018-09-01T08:05:33.711Z,16.95
2018-09-01T08:08:03.234Z,16.92
2018-09-01T08:10:32.393Z,17.05
2018-09-01T08:13:01.728Z,17.13
2018-09-01T08:15:31.166Z,16.94
2018-09-01T08:18:00.869Z,17.01
2018-09-01T08:20:30.188Z,17.07
2018-09-01T08:22:59.473Z,17.07
2018-09-01T08:25:28.988Z,17.12
2018-09-01T08:27:58.016Z,17.16
2018-09-01T08:30:26.920Z,17.23
2018-09-01T08:32:56.127Z,17.25
2018-09-01T08:35:25.121Z,17.23
2018-09-01T08:38:00.847Z,17.22
2018-09-01T08:40:29.752Z,17.23
2018-09-01T08:42:58.975Z,17.39
2018-09-01T08:45:28.118Z,17.42
2018-09-01T08:47:57.204Z,17.33
2018-09-01T08:50:26.246Z,17.32
2018-09-01T08:52:55.460Z,17.33
2018-09-01T08:55:24.428Z,17.46
2018-09-01T08:57:53.550Z,17.54
2018-09-01T09:00:23.905Z,17.71
2018-09-01T09:02:52.859Z,17.94
2018-09-01T09:05:21.859Z,18.09
2018-09-01T09:07:51.332Z,18.04
2018-09-01T09:10:21.445Z,18.03
2018-09-01T09:12:50.768Z,17.99
2018-09-01T09:15:20.246Z,17.96
2018-09-01T09:17:49.175Z,18.07
2018-09-01T09:20:18.479Z,18.08
2018-09-01T09:22:47.901Z,18.34
2018-09-01T09:25:17.553Z,18.56
2018-09-01T09:27:46.722Z,18.72
2018-09-01T09:30:15.860Z,18.75
2018-09-01T09:32:45.385Z,18.77
2018-09-01T09:35:14.408Z,18.71
2018-09-01T09:37:43.471Z,18.67
2018-09-01T09:40:12.340Z,18.76
2018-09-01T09:42:41.286Z,18.90
2018-09-01T09:45:10.609Z,19.07
2018-09-01T09:47:39.715Z,19.14
2018-09-01T09:50:08.677Z,19.05
2018-09-01T09:52:37.993Z,19.22
2018-09-01T09:55:07.089Z,19.15
2018-09-01T09:57:36.310Z,19.18
2018-09-01T10:00:06.547Z,19.04
2018-09-01T10:02:35.560Z,19.17
2018-09-01T10:05:05.364Z,19.24
2018-09-01T10:07:34.639Z,19.36
2018-09-01T10:10:03.619Z,19.35
2018-09-01T10:12:32.611Z,19.45
2018-09-01T10:15:01.646Z,19.47
2018-09-01T10:17:30.980Z,19.47
2018-09-01T10:20:00.111Z,19.42
2018-09-01T10:22:29.304Z,19.36
2018-09-01T10:24:58.406Z,19.45
2018-09-01T10:27:27.543Z,19.59
2018-09-01T10:29:56.883Z,19.46
2018-09-01T10:32:25.904Z,19.40
2018-09-01T10:34:54.886Z,19.50
2018-09-01T10:37:24.060Z,19.55
2018-09-01T10:39:53.081Z,19.55
2018-09-01T10:42:22.336Z,19.66
2018-09-01T10:44:51.524Z,19.69
2018-09-01T10:47:20.814Z,19.72
2018-09-01T10:49:49.813Z,19.73
2018-09-01T10:52:19.161Z,19.67
2018-09-01T10:54:48.224Z,19.68
2018-09-01T10:57:17.461Z,19.69
2018-09-01T10:59:47.735Z,19.62
2018-09-01T11:02:16.925Z,19.71
2018-09-01T11:04:45.985Z,19.71
2018-09-01T11:07:15.442Z,19.76
2018-09-01T11:09:44.378Z,19.79
2018-09-01T11:12:13.504Z,19.05
2018-09-01T11:14:43.005Z,19.65
2018-09-01T11:17:11.895Z,19.57
2018-09-01T11:19:40.908Z,19.67
2018-09-01T11:22:10.154Z,19.71
2018-09-01T11:24:39.141Z,19.79
2018-09-01T11:27:08.634Z,20.00
2018-09-01T11:29:37.800Z,20.09
2018-09-01T11:32:07.156Z,20.09
2018-09-01T11:34:36.093Z,20.11
2018-09-01T11:37:05.174Z,20.26
2018-09-01T11:39:34.110Z,20.38
2018-09-01T11:42:03.020Z,20.42
2018-09-01T11:44:32.263Z,20.59
2018-09-01T11:47:01.309Z,20.90
2018-09-01T11:49:30.600Z,20.87
2018-09-01T11:51:59.684Z,20.61
2018-09-01T11:54:28.734Z,20.53
2018-09-01T11:56:57.785Z,20.51
2018-09-01T11:59:26.774Z,20.46
2018-09-01T12:01:55.659Z,20.48
2018-09-01T12:04:24.682Z,20.41
2018-09-01T12:06:53.699Z,20.33
2018-09-01T12:09:23.813Z,20.48
2018-09-01T12:11:52.852Z,20.60
2018-09-01T12:14:22.612Z,20.62
2018-09-01T12:16:51.826Z,20.78
2018-09-01T12:19:21.763Z,20.82
2018-09-01T12:21:51.180Z,21.15
2018-09-01T12:24:20.054Z,21.29
2018-09-01T12:26:48.979Z,21.16
2018-09-01T12:29:18.102Z,20.93
2018-09-01T12:31:47.211Z,20.89
2018-09-01T12:34:16.343Z,21.08
2018-09-01T12:36:45.504Z,21.25
2018-09-01T12:39:14.559Z,21.17
2018-09-01T12:41:43.449Z,21.23
2018-09-01T12:44:12.605Z,21.39
2018-09-01T12:46:41.632Z,21.39
2018-09-01T12:49:10.637Z,21.28
2018-09-01T12:51:39.923Z,21.18
2018-09-01T12:54:09.073Z,21.26
2018-09-01T12:56:38.062Z,21.28
2018-09-01T12:59:07.297Z,21.33
2018-09-01T13:01:36.646Z,21.28
2018-09-01T13:04:05.647Z,21.30
2018-09-01T13:06:34.929Z,21.26
2018-09-01T13:09:05.226Z,21.22
2018-09-01T13:11:34.225Z,21.11
2018-09-01T13:14:03.692Z,20.94
2018-09-01T13:16:32.708Z,20.79
2018-09-01T13:19:01.648Z,20.68
2018-09-01T13:21:30.711Z,20.61
2018-09-01T13:23:59.545Z,20.53
2018-09-01T13:26:28.584Z,20.52
2018-09-01T13:28:57.717Z,20.13
2018-09-01T13:31:26.835Z,20.26
2018-09-01T13:33:55.969Z,20.04
2018-09-01T13:36:25.061Z,20.03
2018-09-01T13:38:54.022Z,20.02
2018-09-01T13:41:23.162Z,19.85
2018-09-01T13:43:52.348Z,19.78
2018-09-01T13:46:21.286Z,19.59
2018-09-01T13:48:50.289Z,19.69
2018-09-01T13:51:19.441Z,19.66
2018-09-01T13:53:48.741Z,19.74
2018-09-01T13:56:17.830Z,19.74
2018-09-01T13:58:47.196Z,19.70
2018-09-01T14:01:16.231Z,19.59
2018-09-01T14:03:45.533Z,19.55
2018-09-01T14:06:15.074Z,19.48
2018-09-01T14:08:43.965Z,19.51
2018-09-01T14:11:14.522Z,19.51
2018-09-01T14:13:43.479Z,18.80
2018-09-01T14:16:12.332Z,19.37
2018-09-01T14:18:41.416Z,19.43
2018-09-01T14:21:10.671Z,19.56
2018-09-01T14:23:39.655Z,19.55
2018-09-01T14:26:08.629Z,19.48
2018-09-01T14:28:38.295Z,19.49
2018-09-01T14:31:07.453Z,19.52
2018-09-01T14:33:37.209Z,19.63
2018-09-01T14:36:07.014Z,19.66
2018-09-01T14:38:36.468Z,19.71
2018-09-01T14:41:05.511Z,19.70
2018-09-01T14:43:34.775Z,19.65
2018-09-01T14:46:03.900Z,19.56
2018-09-01T14:48:32.818Z,19.63
2018-09-01T14:51:02.157Z,19.56
2018-09-01T14:53:31.082Z,19.58
2018-09-01T14:56:00.305Z,19.53
2018-09-01T14:58:29.523Z,19.53
2018-09-01T15:00:58.540Z,19.27
2018-09-01T15:03:27.748Z,19.29
2018-09-01T15:05:57.223Z,19.14
2018-09-01T15:08:26.243Z,19.20
2018-09-01T15:10:55.468Z,19.27
2018-09-01T15:13:25.136Z,19.41
2018-09-01T15:15:54.132Z,19.35
2018-09-01T15:18:23.074Z,19.37
2018-09-01T15:20:52.259Z,19.31
2018-09-01T15:23:21.379Z,19.34
2018-09-01T15:25:51.401Z,19.41
2018-09-01T15:28:20.373Z,19.30
2018-09-01T15:30:49.444Z,19.34
2018-09-01T15:33:18.461Z,19.30
2018-09-01T15:35:47.828Z,19.29
2018-09-01T15:38:17.046Z,19.20
2018-09-01T15:40:46.500Z,19.20
2018-09-01T15:43:16.246Z,19.18
2018-09-01T15:45:45.346Z,19.20
2018-09-01T15:48:14.282Z,19.21
2018-09-01T15:50:43.600Z,19.11
2018-09-01T15:53:12.999Z,19.00
2018-09-01T15:55:42.087Z,18.89
2018-09-01T15:58:11.392Z,18.77
2018-09-01T16:00:40.602Z,18.78
2018-09-01T16:03:09.682Z,18.64
2018-09-01T16:05:38.837Z,18.53
2018-09-01T16:08:07.823Z,18.61
2018-09-01T16:10:36.991Z,18.77
2018-09-01T16:13:06.410Z,18.63
2018-09-01T16:15:35.294Z,18.82
2018-09-01T16:18:04.751Z,18.78
2018-09-01T16:20:33.829Z,18.73
2018-09-01T16:23:03.165Z,18.66
2018-09-01T16:25:32.271Z,18.84
2018-09-01T16:28:01.990Z,18.83
2018-09-01T16:30:31.352Z,18.87
2018-09-01T16:33:00.436Z,18.84
2018-09-01T16:35:30.219Z,18.80
2018-09-01T16:37:59.458Z,18.78
2018-09-01T16:40:28.600Z,18.59
2018-09-01T16:42:57.758Z,18.69
2018-09-01T16:45:26.817Z,18.79
2018-09-01T16:47:55.657Z,18.82
2018-09-01T16:50:24.997Z,18.90
2018-09-01T16:52:53.994Z,18.89
2018-09-01T16:55:23.127Z,18.83
2018-09-01T16:57:52.176Z,18.85
2018-09-01T17:00:21.900Z,18.84
2018-09-01T17:02:51.492Z,18.78
2018-09-01T17:05:21.800Z,18.78
2018-09-01T17:07:50.894Z,18.74
2018-09-01T17:10:20.046Z,18.56
2018-09-01T17:12:49.368Z,18.57
2018-09-01T17:15:19.477Z,18.61
2018-09-01T17:17:48.880Z,18.41
2018-09-01T17:20:18.448Z,18.44
2018-09-01T17:22:48.012Z,18.40
2018-09-01T17:25:17.335Z,17.75
2018-09-01T17:27:47.261Z,18.39
2018-09-01T17:30:16.592Z,18.32
2018-09-01T17:32:45.616Z,18.25
2018-09-01T17:35:14.999Z,18.17
2018-09-01T17:37:44.355Z,18.23
2018-09-01T17:40:13.340Z,18.07
2018-09-01T17:42:42.497Z,18.05
2018-09-01T17:45:11.525Z,17.97
2018-09-01T17:47:40.460Z,17.81
2018-09-01T17:50:09.963Z,17.80
2018-09-01T17:52:39.048Z,17.76
2018-09-01T17:55:08.369Z,17.80
2018-09-01T17:57:37.545Z,17.64
2018-09-01T18:00:07.019Z,17.65
2018-09-01T18:02:36.336Z,17.68
2018-09-01T18:05:06.944Z,17.61
2018-09-01T18:07:36.099Z,17.64
2018-09-01T18:10:05.448Z,17.49
2018-09-01T18:12:34.778Z,17.49
2018-09-01T18:15:04.963Z,17.48
2018-09-01T18:17:34.321Z,17.51
2018-09-01T18:20:03.600Z,17.43
2018-09-01T18:22:32.666Z,17.28
2018-09-01T18:25:02.227Z,17.26
2018-09-01T18:27:31.599Z,17.23
2018-09-01T18:30:01.012Z,17.35
2018-09-01T18:32:30.862Z,17.32
2018-09-01T18:35:00.349Z,17.34
2018-09-01T18:37:29.392Z,17.38
2018-09-01T18:39:59.034Z,17.37
2018-09-01T18:42:28.654Z,17.30
2018-09-01T18:44:58.292Z,17.21
2018-09-01T18:47:27.757Z,17.17
2018-09-01T18:49:57.018Z,17.21
2018-09-01T18:52:27.124Z,17.17
2018-09-01T18:54:56.078Z,17.17
2018-09-01T18:57:25.376Z,16.97
2018-09-01T18:59:54.570Z,17.08
2018-09-01T19:02:24.726Z,17.12
2018-09-01T19:04:54.520Z,17.12
2018-09-01T19:07:24.615Z,17.10
2018-09-01T19:09:53.647Z,17.15
2018-09-01T19:12:23.868Z,17.10
2018-09-01T19:14:52.772Z,17.05
2018-09-01T19:17:22.336Z,17.14
2018-09-01T19:19:51.363Z,17.17
2018-09-01T19:22:21.465Z,17.12
2018-09-01T19:24:50.490Z,17.04
2018-09-01T19:27:20.207Z,17.01
2018-09-01T19:29:49.356Z,17.05
2018-09-01T19:32:18.758Z,17.03
2018-09-01T19:34:48.299Z,17.05
2018-09-01T19:37:17.618Z,17.03
2018-09-01T19:39:46.547Z,17.08
2018-09-01T19:42:16.017Z,17.06
2018-09-01T19:44:45.624Z,17.09
2018-09-01T19:47:15.022Z,17.07
2018-09-01T19:49:44.620Z,17.06
2018-09-01T19:52:13.858Z,17.06
2018-09-01T19:54:43.311Z,16.99
2018-09-01T19:57:12.666Z,16.94
2018-09-01T19:59:41.826Z,16.98
2018-09-01T20:02:11.067Z,17.00
2018-09-01T20:04:40.577Z,16.81
2018-09-01T20:07:10.031Z,16.79
2018-09-01T20:09:39.386Z,16.79
2018-09-01T20:12:08.894Z,16.71
2018-09-01T20:14:38.259Z,16.71
2018-09-01T20:17:07.599Z,16.67
2018-09-01T20:19:37.085Z,16.69
2018-09-01T20:22:07.287Z,16.68
2018-09-01T20:24:36.604Z,16.75
2018-09-01T20:27:06.111Z,16.79
2018-09-01T20:29:35.405Z,16.69
2018-09-01T20:32:05.222Z,16.64
2018-09-01T20:34:34.839Z,16.66
2018-09-01T20:37:04.024Z,16.72
2018-09-01T20:39:33.282Z,16.64
2018-09-01T20:42:02.875Z,16.57
2018-09-01T20:44:31.903Z,16.53
2018-09-01T20:47:01.168Z,16.53
2018-09-01T20:49:30.384Z,16.55
2018-09-01T20:51:59.922Z,15.89
2018-09-01T20:54:29.301Z,16.59
2018-09-01T20:56:58.688Z,16.44
2018-09-01T20:59:28.140Z,16.32
2018-09-01T21:01:57.194Z,16.23
2018-09-01T21:04:27.150Z,16.18
2018-09-01T21:06:56.376Z,16.09
2018-09-01T21:09:25.872Z,16.01
2018-09-01T21:11:55.510Z,15.98
2018-09-01T21:14:24.929Z,15.94
2018-09-01T21:16:54.278Z,15.93
2018-09-01T21:19:25.274Z,15.93
2018-09-01T21:21:54.617Z,15.90
2018-09-01T21:24:24.369Z,15.87
2018-09-01T21:26:54.048Z,15.78
2018-09-01T21:29:23.506Z,15.69
2018-09-01T21:31:53.045Z,15.60
2018-09-01T21:34:22.622Z,15.54
2018-09-01T21:36:51.919Z,15.51
2018-09-01T21:39:20.993Z,15.49
2018-09-01T21:41:50.633Z,15.46
2018-09-01T21:44:19.892Z,15.49
2018-09-01T21:46:49.159Z,15.46
2018-09-01T21:49:18.634Z,15.43
2018-09-01T21:51:47.862Z,15.42
2018-09-01T21:54:17.113Z,15.38
2018-09-01T21:56:46.496Z,15.37
2018-09-01T21:59:15.777Z,15.33
2018-09-01T22:01:49.047Z,15.31
2018-09-01T22:04:18.682Z,15.28
2018-09-01T22:06:48.440Z,15.22
2018-09-01T22:09:17.842Z,15.20
2018-09-01T22:11:47.556Z,15.20
2018-09-01T22:14:16.970Z,15.22
2018-09-01T22:16:46.257Z,15.27
2018-09-01T22:19:15.804Z,15.27
2018-09-01T22:21:45.361Z,15.24
2018-09-01T22:24:14.892Z,15.19
2018-09-01T22:26:44.496Z,15.08
2018-09-01T22:29:13.761Z,14.98
2018-09-01T22:31:42.953Z,14.98
2018-09-01T22:34:12.310Z,15.01
2018-09-01T22:36:41.679Z,15.05
2018-09-01T22:39:10.905Z,15.09
2018-09-01T22:41:40.554Z,15.16
2018-09-01T22:44:09.902Z,15.18
2018-09-01T22:46:39.298Z,15.20
2018-09-01T22:49:08.742Z,15.15
2018-09-01T22:51:38.051Z,15.13
2018-09-01T22:54:07.646Z,15.12
2018-09-01T22:56:37.062Z,15.09
2018-09-01T22:59:07.372Z,15.13
2018-09-01T23:01:36.674Z,15.19
2018-09-01T23:04:06.226Z,15.22
2018-09-01T23:06:35.493Z,15.28
2018-09-01T23:09:05.465Z,15.29
2018-09-01T23:11:34.942Z,15.23
2018-09-01T23:14:04.122Z,15.05
2018-09-01T23:16:33.475Z,14.92
2018-09-01T23:19:02.930Z,14.84
2018-09-01T23:21:32.204Z,14.80
2018-09-01T23:24:01.518Z,14.82
2018-09-01T23:26:30.927Z,14.76
2018-09-01T23:29:00.255Z,14.75
2018-09-01T23:31:29.592Z,14.76
2018-09-01T23:33:59.068Z,14.78
2018-09-01T23:36:28.434Z,14.79
2018-09-01T23:38:57.745Z,14.84
2018-09-01T23:41:27.595Z,14.90
2018-09-01T23:43:56.793Z,14.98
2018-09-01T23:46:25.886Z,15.03
2018-09-01T23:48:55.067Z,15.06
2018-09-01T23:51:24.256Z,15.06
2018-09-01T23:53:53.564Z,15.06
2018-09-01T23:56:24.374Z,15.10
2018-09-01T23:58:53.588Z,15.17
